createdAt,value
2017-09-12T00:00:17.817Z,26.65
2017-09-12T00:02:44.219Z,26.62
2017-09-12T00:05:10.720Z,26.57
2017-09-12T00:07:37.154Z,26.50
2017-09-12T00:10:03.693Z,26.48
2017-09-12T00:12:30.126Z,26.41
2017-09-12T00:14:56.561Z,26.38
2017-09-12T00:17:22.996Z,26.35
2017-09-12T00:19:49.430Z,26.28
2017-09-12T00:22:15.886Z,26.26
2017-09-12T00:24:42.402Z,26.22
2017-09-12T00:27:08.837Z,26.18
2017-09-12T00:29:35.272Z,26.22
2017-09-12T00:32:01.707Z,26.21
2017-09-12T00:34:28.142Z,26.22
2017-09-12T00:36:54.685Z,26.19
2017-09-12T00:39:21.218Z,26.17
2017-09-12T00:41:47.620Z,26.12
2017-09-12T00:44:14.113Z,26.02
2017-09-12T00:46:40.628Z,25.98
2017-09-12T00:49:07.025Z,26.06
2017-09-12T00:51:33.593Z,26.07
2017-09-12T00:54:00.032Z,26.04
2017-09-12T00:56:26.443Z,26.02
2017-09-12T00:58:52.898Z,26.00
2017-09-12T01:01:19.746Z,26.00
2017-09-12T01:03:46.182Z,25.97
2017-09-12T01:06:12.586Z,25.98
2017-09-12T01:08:39.046Z,26.00
2017-09-12T01:11:05.480Z,25.98
2017-09-12T01:13:31.915Z,25.96
2017-09-12T01:15:58.353Z,25.94
2017-09-12T01:18:25.399Z,25.99
2017-09-12T01:20:51.835Z,25.88
2017-09-12T01:23:18.215Z,25.85
2017-09-12T01:25:44.702Z,25.84
2017-09-12T01:28:11.138Z,25.88
2017-09-12T01:30:37.571Z,25.76
2017-09-12T01:33:04.009Z,25.83
2017-09-12T01:35:30.443Z,25.74
2017-09-12T01:37:56.878Z,25.77
2017-09-12T01:40:23.266Z,25.78
2017-09-12T01:42:49.734Z,25.70
2017-09-12T01:45:16.127Z,25.66
2017-09-12T01:47:42.599Z,25.75
2017-09-12T01:50:09.664Z,25.74
2017-09-12T01:52:36.083Z,25.76
2017-09-12T01:55:02.524Z,25.57
2017-09-12T01:57:28.966Z,25.70
2017-09-12T01:59:55.385Z,25.71
2017-09-12T02:02:21.797Z,25.65
2017-09-12T02:04:48.994Z,25.65
2017-09-12T02:07:15.449Z,25.62
2017-09-12T02:09:41.862Z,25.52
2017-09-12T02:12:08.253Z,25.50
2017-09-12T02:14:34.716Z,25.37
2017-09-12T02:17:01.179Z,25.51
2017-09-12T02:19:27.577Z,25.48
2017-09-12T02:21:54.036Z,25.36
2017-09-12T02:24:20.575Z,25.36
2017-09-12T02:26:46.928Z,25.49
2017-09-12T02:29:13.443Z,25.48
2017-09-12T02:31:39.879Z,25.45
2017-09-12T02:34:06.418Z,25.42
2017-09-12T02:36:32.855Z,25.44
2017-09-12T02:38:59.235Z,25.40
2017-09-12T02:41:25.722Z,25.37
2017-09-12T02:43:52.165Z,25.39
2017-09-12T02:46:18.592Z,25.39
2017-09-12T02:48:44.924Z,25.42
2017-09-12T02:51:11.373Z,25.41
2017-09-12T02:53:38.545Z,25.44
2017-09-12T02:56:04.948Z,25.37
2017-09-12T02:58:31.382Z,25.34
2017-09-12T03:00:57.844Z,25.33
2017-09-12T03:03:24.251Z,25.29
2017-09-12T03:05:50.684Z,25.34
2017-09-12T03:08:17.119Z,25.32
2017-09-12T03:10:43.557Z,25.36
2017-09-12T03:13:10.023Z,25.29
2017-09-12T03:15:36.444Z,25.23
2017-09-12T03:18:02.861Z,25.25
2017-09-12T03:20:29.296Z,25.19
2017-09-12T03:22:55.729Z,25.19
2017-09-12T03:25:22.164Z,25.16
2017-09-12T03:27:48.601Z,25.18
2017-09-12T03:30:14.970Z,25.14
2017-09-12T03:32:41.487Z,25.13
2017-09-12T03:35:07.877Z,25.06
2017-09-12T03:37:34.320Z,25.05
2017-09-12T03:40:00.785Z,25.15
2017-09-12T03:42:27.207Z,25.07
2017-09-12T03:44:53.627Z,25.03
2017-09-12T03:47:20.068Z,25.03
2017-09-12T03:49:46.484Z,24.97
2017-09-12T03:52:12.947Z,24.98
2017-09-12T03:54:39.391Z,24.98
2017-09-12T03:57:05.767Z,25.00
2017-09-12T03:59:32.232Z,24.99
2017-09-12T04:01:58.687Z,24.94
2017-09-12T04:04:25.122Z,24.96
2017-09-12T04:06:51.535Z,24.94
2017-09-12T04:09:17.941Z,24.95
2017-09-12T04:11:44.427Z,24.89
2017-09-12T04:14:10.838Z,24.87
2017-09-12T04:16:37.279Z,24.97
2017-09-12T04:19:03.731Z,24.95
2017-09-12T04:21:30.167Z,24.97
2017-09-12T04:23:56.601Z,24.98
2017-09-12T04:26:23.043Z,25.01
2017-09-12T04:28:49.427Z,25.02
2017-09-12T04:31:15.906Z,25.06
2017-09-12T04:33:42.292Z,25.07
2017-09-12T04:36:08.776Z,25.08
2017-09-12T04:38:35.210Z,25.13
2017-09-12T04:41:01.600Z,25.16
2017-09-12T04:43:28.075Z,25.20
2017-09-12T04:45:54.495Z,25.22
2017-09-12T04:48:20.951Z,25.27
2017-09-12T04:50:47.388Z,25.26
2017-09-12T04:53:13.820Z,25.27
2017-09-12T04:55:40.152Z,25.30
2017-09-12T04:58:06.535Z,25.44
2017-09-12T05:00:32.920Z,25.44
2017-09-12T05:02:59.355Z,25.34
2017-09-12T05:05:25.790Z,25.38
2017-09-12T05:07:52.635Z,25.33
2017-09-12T05:10:19.087Z,25.53
2017-09-12T05:12:45.451Z,25.60
2017-09-12T05:15:11.942Z,25.69
2017-09-12T05:17:38.374Z,25.76
2017-09-12T05:20:04.765Z,25.73
2017-09-12T05:22:31.235Z,25.75
2017-09-12T05:24:57.679Z,25.80
2017-09-12T05:27:24.114Z,25.90
2017-09-12T05:29:50.568Z,25.95
2017-09-12T05:32:16.998Z,26.01
2017-09-12T05:34:43.418Z,26.09
2017-09-12T05:37:09.853Z,26.11
2017-09-12T05:39:36.239Z,26.07
2017-09-12T05:42:02.723Z,26.28
2017-09-12T05:44:29.157Z,26.35
2017-09-12T05:46:55.589Z,26.52
2017-09-12T05:49:22.028Z,26.51
2017-09-12T05:51:48.462Z,26.61
2017-09-12T05:54:14.898Z,26.56
2017-09-12T05:56:41.279Z,26.53
2017-09-12T05:59:07.752Z,26.64
2017-09-12T06:01:34.206Z,26.77
2017-09-12T06:04:00.638Z,26.86
2017-09-12T06:06:27.077Z,26.92
2017-09-12T06:08:53.600Z,27.00
2017-09-12T06:11:20.046Z,27.09
2017-09-12T06:13:46.785Z,27.11
2017-09-12T06:16:13.221Z,27.22
2017-09-12T06:18:39.655Z,27.27
2017-09-12T06:21:06.094Z,27.36
2017-09-12T06:23:32.475Z,27.40
2017-09-12T06:25:58.911Z,27.45
2017-09-12T06:28:25.294Z,27.49
2017-09-12T06:30:51.728Z,27.61
2017-09-12T06:33:18.183Z,27.74
2017-09-12T06:35:44.701Z,27.89
2017-09-12T06:38:11.341Z,28.18
2017-09-12T06:40:37.776Z,28.37
2017-09-12T06:43:04.212Z,28.58
2017-09-12T06:45:30.644Z,28.85
2017-09-12T06:47:57.388Z,28.97
2017-09-12T06:50:23.843Z,29.10
2017-09-12T06:52:50.260Z,28.99
2017-09-12T06:55:16.694Z,28.88
2017-09-12T06:57:43.129Z,28.84
2017-09-12T07:00:09.510Z,28.83
2017-09-12T07:02:35.996Z,28.81
2017-09-12T07:05:02.432Z,28.92
2017-09-12T07:07:28.866Z,29.08
2017-09-12T07:09:55.301Z,29.20
2017-09-12T07:12:21.735Z,29.14
2017-09-12T07:14:48.136Z,29.15
2017-09-12T07:17:14.504Z,29.25
2017-09-12T07:19:41.758Z,29.36
2017-09-12T07:22:08.189Z,29.52
2017-09-12T07:24:34.627Z,29.72
2017-09-12T07:27:01.062Z,29.85
2017-09-12T07:29:27.497Z,29.92
2017-09-12T07:31:53.932Z,29.93
2017-09-12T07:34:20.366Z,30.05
2017-09-12T07:36:47.314Z,30.05
2017-09-12T07:39:13.750Z,30.07
2017-09-12T07:41:40.185Z,30.10
2017-09-12T07:44:06.927Z,30.15
2017-09-12T07:46:33.360Z,30.17
2017-09-12T07:48:59.753Z,30.28
2017-09-12T07:51:26.233Z,30.30
2017-09-12T07:53:52.648Z,30.19
2017-09-12T07:56:19.389Z,30.09
2017-09-12T07:58:45.843Z,29.95
2017-09-12T08:01:12.227Z,29.99
2017-09-12T08:03:38.693Z,29.98
2017-09-12T08:06:05.249Z,30.02
2017-09-12T08:08:32.097Z,29.99
2017-09-12T08:10:58.525Z,30.06
2017-09-12T08:13:25.835Z,30.24
2017-09-12T08:15:52.736Z,30.05
2017-09-12T08:18:19.574Z,30.05
2017-09-12T08:20:46.009Z,30.24
2017-09-12T08:23:12.451Z,30.33
2017-09-12T08:25:39.084Z,30.51
2017-09-12T08:28:05.621Z,30.54
2017-09-12T08:30:33.285Z,30.54
2017-09-12T08:33:00.358Z,30.52
2017-09-12T08:35:26.853Z,30.42
2017-09-12T08:37:53.717Z,30.19
2017-09-12T08:40:20.462Z,29.94
2017-09-12T08:42:47.615Z,29.95
2017-09-12T08:45:14.355Z,30.04
2017-09-12T08:47:40.991Z,30.09
2017-09-12T08:50:07.631Z,30.05
2017-09-12T08:52:34.692Z,30.03
2017-09-12T08:55:01.320Z,30.20
2017-09-12T08:57:27.959Z,30.43
2017-09-12T08:59:54.787Z,30.49
2017-09-12T09:02:21.498Z,30.48
2017-09-12T09:04:48.084Z,30.61
2017-09-12T09:07:14.519Z,30.84
2017-09-12T09:09:41.076Z,30.61
2017-09-12T09:12:07.594Z,30.50
2017-09-12T09:14:34.133Z,30.50
2017-09-12T09:17:01.591Z,30.54
2017-09-12T09:19:28.025Z,30.67
2017-09-12T09:21:54.459Z,30.64
2017-09-12T09:24:20.894Z,30.76
2017-09-12T09:26:47.635Z,30.70
2017-09-12T09:29:14.068Z,30.64
2017-09-12T09:31:40.462Z,30.76
2017-09-12T09:34:08.170Z,31.18
2017-09-12T09:36:34.605Z,31.45
2017-09-12T09:39:01.640Z,31.69
2017-09-12T09:41:28.396Z,31.79
2017-09-12T09:43:54.935Z,31.69
2017-09-12T09:46:21.396Z,31.63
2017-09-12T09:48:48.214Z,31.46
2017-09-12T09:51:14.948Z,31.47
2017-09-12T09:53:41.799Z,31.43
2017-09-12T09:56:08.221Z,31.35
2017-09-12T09:58:34.640Z,31.34
2017-09-12T10:01:01.310Z,31.36
2017-09-12T10:03:27.853Z,31.41
2017-09-12T10:05:55.156Z,31.49
2017-09-12T10:08:22.229Z,31.34
2017-09-12T10:10:48.891Z,31.27
2017-09-12T10:13:15.275Z,31.19
2017-09-12T10:15:41.969Z,31.36
2017-09-12T10:18:08.581Z,31.60
2017-09-12T10:20:35.249Z,31.65
2017-09-12T10:23:01.683Z,31.89
2017-09-12T10:25:28.392Z,31.80
2017-09-12T10:27:54.854Z,31.88
2017-09-12T10:30:21.396Z,32.01
2017-09-12T10:32:47.933Z,31.92
2017-09-12T10:35:14.316Z,31.81
2017-09-12T10:37:40.775Z,31.90
2017-09-12T10:40:07.602Z,31.66
2017-09-12T10:42:34.799Z,31.58
2017-09-12T10:45:01.234Z,31.37
2017-09-12T10:47:27.794Z,31.36
2017-09-12T10:49:54.717Z,31.28
2017-09-12T10:52:21.153Z,31.39
2017-09-12T10:54:47.587Z,31.17
2017-09-12T10:57:14.244Z,31.32
2017-09-12T10:59:40.842Z,31.38
2017-09-12T11:02:07.280Z,31.57
2017-09-12T11:04:33.769Z,31.77
2017-09-12T11:07:00.729Z,32.11
2017-09-12T11:09:27.177Z,31.97
2017-09-12T11:11:53.653Z,32.00
2017-09-12T11:14:20.309Z,32.37
2017-09-12T11:16:46.784Z,32.75
2017-09-12T11:19:13.186Z,32.56
2017-09-12T11:21:39.601Z,32.14
2017-09-12T11:24:06.343Z,31.97
2017-09-12T11:26:33.007Z,31.98
2017-09-12T11:28:59.404Z,31.79
2017-09-12T11:31:26.187Z,31.96
2017-09-12T11:33:52.890Z,32.08
2017-09-12T11:36:19.314Z,31.99
2017-09-12T11:38:45.977Z,31.81
2017-09-12T11:41:12.411Z,31.77
2017-09-12T11:43:38.846Z,32.07
2017-09-12T11:46:05.280Z,31.80
2017-09-12T11:48:31.716Z,31.70
2017-09-12T11:50:58.278Z,32.36
2017-09-12T11:53:24.996Z,32.35
2017-09-12T11:55:51.533Z,32.02
2017-09-12T11:58:18.073Z,31.66
2017-09-12T12:00:44.638Z,31.52
2017-09-12T12:03:11.248Z,31.50
2017-09-12T12:05:38.075Z,31.53
2017-09-12T12:08:07.352Z,31.60
2017-09-12T12:10:34.136Z,31.36
2017-09-12T12:13:01.187Z,31.22
2017-09-12T12:15:27.929Z,31.32
2017-09-12T12:17:54.508Z,31.62
2017-09-12T12:20:21.159Z,32.26
2017-09-12T12:22:47.745Z,33.29
2017-09-12T12:25:14.182Z,34.38
2017-09-12T12:27:40.716Z,35.06
2017-09-12T12:30:07.130Z,36.12
2017-09-12T12:32:33.573Z,36.76
2017-09-12T12:35:00.841Z,37.25
2017-09-12T12:37:27.360Z,37.33
2017-09-12T12:39:53.934Z,37.85
2017-09-12T12:42:20.448Z,38.43
2017-09-12T12:44:47.194Z,38.61
2017-09-12T12:47:13.732Z,39.06
2017-09-12T12:49:40.165Z,39.29
2017-09-12T12:52:07.011Z,39.82
2017-09-12T12:54:33.759Z,40.24
2017-09-12T12:57:00.189Z,40.27
2017-09-12T12:59:27.254Z,39.59
2017-09-12T13:01:53.672Z,38.48
2017-09-12T13:04:20.265Z,37.04
2017-09-12T13:06:47.259Z,37.08
2017-09-12T13:09:13.693Z,38.23
2017-09-12T13:11:40.129Z,39.28
2017-09-12T13:14:06.795Z,39.97
2017-09-12T13:16:33.401Z,40.56
2017-09-12T13:18:59.794Z,40.11
2017-09-12T13:21:26.382Z,40.14
2017-09-12T13:23:53.328Z,40.87
2017-09-12T13:26:19.717Z,41.24
2017-09-12T13:28:46.094Z,41.07
2017-09-12T13:31:12.529Z,39.38
2017-09-12T13:33:38.917Z,37.90
2017-09-12T13:36:05.372Z,38.18
2017-09-12T13:38:31.936Z,38.39
2017-09-12T13:40:58.322Z,37.93
2017-09-12T13:43:24.704Z,37.63
2017-09-12T13:45:52.195Z,37.86
2017-09-12T13:48:18.803Z,38.81
2017-09-12T13:50:45.790Z,40.25
2017-09-12T13:53:12.335Z,40.52
2017-09-12T13:55:39.032Z,40.26
2017-09-12T13:58:05.541Z,40.37
2017-09-12T14:00:33.640Z,40.47
2017-09-12T14:03:00.075Z,40.17
2017-09-12T14:05:26.716Z,38.29
2017-09-12T14:07:53.821Z,36.99
2017-09-12T14:10:20.353Z,36.24
2017-09-12T14:12:46.790Z,35.82
2017-09-12T14:15:13.788Z,35.69
2017-09-12T14:17:40.527Z,36.50
2017-09-12T14:20:06.914Z,36.96
2017-09-12T14:22:34.010Z,36.03
2017-09-12T14:25:00.575Z,35.16
2017-09-12T14:27:27.087Z,34.51
2017-09-12T14:29:54.135Z,34.17
2017-09-12T14:32:20.775Z,33.80
2017-09-12T14:34:47.150Z,33.48
2017-09-12T14:37:13.746Z,33.43
2017-09-12T14:39:40.183Z,33.51
2017-09-12T14:42:06.552Z,33.42
2017-09-12T14:44:33.051Z,33.12
2017-09-12T14:46:59.588Z,32.93
2017-09-12T14:49:25.945Z,32.50
2017-09-12T14:51:52.356Z,32.42
2017-09-12T14:54:18.739Z,32.19
2017-09-12T14:56:45.167Z,32.07
2017-09-12T14:59:16.668Z,31.97
2017-09-12T15:01:43.770Z,31.82
2017-09-12T15:04:10.215Z,31.65
2017-09-12T15:06:36.805Z,31.58
2017-09-12T15:09:03.362Z,31.66
2017-09-12T15:11:29.776Z,31.89
2017-09-12T15:13:56.632Z,32.04
2017-09-12T15:16:23.063Z,32.32
2017-09-12T15:18:49.489Z,32.59
2017-09-12T15:21:15.871Z,32.59
2017-09-12T15:23:42.358Z,32.36
2017-09-12T15:26:08.794Z,32.08
2017-09-12T15:28:35.229Z,31.99
2017-09-12T15:31:01.615Z,31.79
2017-09-12T15:33:28.768Z,31.67
2017-09-12T15:35:55.199Z,31.47
2017-09-12T15:38:21.689Z,31.34
2017-09-12T15:40:48.120Z,31.11
2017-09-12T15:43:14.540Z,30.96
2017-09-12T15:45:40.990Z,30.87
2017-09-12T15:48:07.401Z,30.74
2017-09-12T15:50:34.670Z,30.70
2017-09-12T15:53:01.118Z,30.58
2017-09-12T15:55:27.651Z,30.48
2017-09-12T15:57:54.086Z,30.39
2017-09-12T16:00:20.523Z,30.30
2017-09-12T16:02:46.956Z,30.21
2017-09-12T16:05:13.391Z,30.13
2017-09-12T16:07:40.590Z,30.15
2017-09-12T16:10:07.062Z,30.22
2017-09-12T16:12:33.529Z,30.13
2017-09-12T16:14:59.971Z,30.05
2017-09-12T16:17:26.384Z,29.94
2017-09-12T16:19:52.818Z,29.80
2017-09-12T16:22:19.256Z,29.68
2017-09-12T16:24:46.509Z,29.47
2017-09-12T16:27:13.355Z,29.43
2017-09-12T16:29:39.788Z,29.35
2017-09-12T16:32:06.226Z,29.28
2017-09-12T16:34:32.657Z,29.19
2017-09-12T16:36:59.095Z,29.05
2017-09-12T16:39:25.487Z,29.01
2017-09-12T16:41:51.963Z,28.92
2017-09-12T16:44:18.397Z,28.86
2017-09-12T16:46:44.780Z,28.85
2017-09-12T16:49:11.985Z,28.66
2017-09-12T16:51:38.419Z,28.60
2017-09-12T16:54:04.854Z,28.58
2017-09-12T16:56:31.289Z,28.55
2017-09-12T16:58:57.639Z,28.52
2017-09-12T17:01:24.056Z,28.49
2017-09-12T17:03:50.494Z,28.28
2017-09-12T17:06:17.642Z,28.30
2017-09-12T17:08:44.100Z,28.25
2017-09-12T17:11:10.487Z,28.24
2017-09-12T17:13:36.948Z,28.12
2017-09-12T17:16:03.383Z,28.14
2017-09-12T17:18:29.773Z,28.14
2017-09-12T17:20:56.154Z,28.04
2017-09-12T17:23:23.404Z,27.96
2017-09-12T17:25:49.840Z,27.94
2017-09-12T17:28:16.275Z,27.96
2017-09-12T17:30:42.707Z,27.81
2017-09-12T17:33:09.144Z,27.81
2017-09-12T17:35:35.680Z,27.83
2017-09-12T17:38:02.108Z,27.79
2017-09-12T17:40:29.272Z,27.69
2017-09-12T17:42:55.702Z,27.68
2017-09-12T17:45:22.136Z,27.62
2017-09-12T17:47:48.590Z,27.55
2017-09-12T17:50:15.015Z,27.49
2017-09-12T17:52:41.441Z,27.46
2017-09-12T17:55:07.877Z,27.43
2017-09-12T17:57:35.028Z,27.45
2017-09-12T18:00:01.464Z,27.40
2017-09-12T18:02:27.887Z,27.37
2017-09-12T18:04:54.287Z,27.25
2017-09-12T18:07:20.749Z,27.17
2017-09-12T18:09:47.221Z,27.07
2017-09-12T18:12:13.740Z,27.01
2017-09-12T18:14:40.790Z,26.86
2017-09-12T18:17:07.224Z,26.68
2017-09-12T18:19:33.659Z,26.47
2017-09-12T18:22:00.095Z,26.40
2017-09-12T18:24:26.530Z,26.36
2017-09-12T18:26:52.965Z,26.20
2017-09-12T18:29:19.502Z,26.27
2017-09-12T18:31:46.654Z,26.07
2017-09-12T18:34:13.039Z,26.04
2017-09-12T18:36:39.523Z,26.12
2017-09-12T18:39:05.906Z,26.14
2017-09-12T18:41:32.375Z,26.18
2017-09-12T18:43:58.817Z,26.11
2017-09-12T18:46:25.212Z,26.10
2017-09-12T18:48:52.299Z,25.97
2017-09-12T18:51:18.747Z,25.93
2017-09-12T18:53:45.181Z,25.86
2017-09-12T18:56:11.620Z,25.70
2017-09-12T18:58:38.052Z,25.59
2017-09-12T19:01:04.486Z,25.50
2017-09-12T19:03:30.922Z,25.45
2017-09-12T19:05:58.177Z,25.36
2017-09-12T19:08:24.610Z,25.38
2017-09-12T19:10:51.047Z,25.31
2017-09-12T19:13:17.481Z,25.31
2017-09-12T19:15:43.863Z,25.30
2017-09-12T19:18:10.299Z,25.25
2017-09-12T19:20:36.791Z,25.21
2017-09-12T19:23:03.887Z,25.10
2017-09-12T19:25:30.346Z,24.97
2017-09-12T19:27:56.806Z,24.93
2017-09-12T19:30:23.198Z,25.05
2017-09-12T19:32:49.676Z,25.07
2017-09-12T19:35:16.112Z,25.01
2017-09-12T19:37:42.546Z,24.83
2017-09-12T19:40:09.697Z,24.71
2017-09-12T19:42:36.132Z,24.67
2017-09-12T19:45:02.568Z,24.70
2017-09-12T19:47:28.956Z,24.66
2017-09-12T19:49:55.437Z,24.58
2017-09-12T19:52:21.872Z,24.53
2017-09-12T19:54:48.262Z,24.56
2017-09-12T19:57:15.512Z,24.58
2017-09-12T19:59:42.018Z,24.48
2017-09-12T20:02:08.431Z,24.30
2017-09-12T20:04:34.865Z,24.14
2017-09-12T20:07:01.301Z,24.05
2017-09-12T20:09:27.736Z,23.99
2017-09-12T20:11:54.171Z,23.93
2017-09-12T20:14:20.605Z,23.88
2017-09-12T20:16:46.958Z,23.92
2017-09-12T20:19:13.373Z,24.02
2017-09-12T20:21:39.807Z,24.02
2017-09-12T20:24:06.243Z,23.99
2017-09-12T20:26:32.700Z,24.04
2017-09-12T20:28:59.060Z,24.04
2017-09-12T20:31:26.315Z,23.94
2017-09-12T20:33:52.801Z,23.83
2017-09-12T20:36:19.236Z,23.83
2017-09-12T20:38:45.773Z,23.80
2017-09-12T20:41:12.123Z,23.71
2017-09-12T20:43:38.541Z,23.59
2017-09-12T20:46:04.961Z,23.55
2017-09-12T20:48:32.227Z,23.40
2017-09-12T20:50:58.664Z,23.61
2017-09-12T20:53:25.102Z,23.52
2017-09-12T20:55:51.483Z,23.55
2017-09-12T20:58:17.868Z,23.56
2017-09-12T21:00:44.408Z,23.50
2017-09-12T21:03:10.839Z,23.33
2017-09-12T21:05:38.115Z,23.17
2017-09-12T21:08:04.632Z,23.04
2017-09-12T21:10:31.067Z,23.12
2017-09-12T21:12:57.503Z,23.22
2017-09-12T21:15:23.941Z,23.23
2017-09-12T21:17:50.374Z,23.10
2017-09-12T21:20:16.808Z,22.95
2017-09-12T21:22:43.959Z,22.80
2017-09-12T21:25:10.393Z,22.73
2017-09-12T21:27:36.828Z,22.86
2017-09-12T21:30:03.263Z,22.84
2017-09-12T21:32:29.697Z,22.75
2017-09-12T21:34:56.132Z,22.83
2017-09-12T21:37:22.586Z,22.88
2017-09-12T21:39:49.821Z,22.82
2017-09-12T21:42:16.256Z,22.76
2017-09-12T21:44:42.686Z,22.59
2017-09-12T21:47:09.227Z,22.51
2017-09-12T21:49:35.785Z,22.52
2017-09-12T21:52:02.191Z,22.45
2017-09-12T21:54:28.635Z,22.39
2017-09-12T21:56:55.787Z,22.35
2017-09-12T21:59:22.222Z,22.33
2017-09-12T22:01:48.607Z,22.44
2017-09-12T22:04:14.955Z,22.53
2017-09-12T22:06:41.442Z,22.59
2017-09-12T22:09:07.859Z,22.66
2017-09-12T22:11:34.295Z,22.76
2017-09-12T22:14:01.392Z,22.76
2017-09-12T22:16:27.882Z,22.72
2017-09-12T22:18:54.316Z,22.65
2017-09-12T22:21:20.751Z,22.45
2017-09-12T22:23:47.188Z,22.44
2017-09-12T22:26:13.620Z,22.52
2017-09-12T22:28:40.056Z,22.57
2017-09-12T22:31:07.208Z,22.57
2017-09-12T22:33:33.643Z,22.54
2017-09-12T22:36:00.023Z,22.51
2017-09-12T22:38:26.511Z,22.35
2017-09-12T22:40:52.949Z,22.25
2017-09-12T22:43:19.381Z,22.29
2017-09-12T22:45:45.819Z,22.29
2017-09-12T22:48:12.252Z,22.16
2017-09-12T22:50:38.639Z,21.98
2017-09-12T22:53:04.986Z,21.89
2017-09-12T22:55:32.250Z,21.87
2017-09-12T22:57:58.709Z,21.80
2017-09-12T23:00:25.142Z,21.65
2017-09-12T23:02:51.680Z,21.59
2017-09-12T23:05:18.115Z,21.62
2017-09-12T23:07:44.549Z,21.64
2017-09-12T23:10:10.986Z,21.76
2017-09-12T23:12:38.238Z,21.89
2017-09-12T23:15:04.674Z,21.96
2017-09-12T23:17:31.108Z,21.81
2017-09-12T23:19:57.550Z,21.68
2017-09-12T23:22:23.978Z,21.54
2017-09-12T23:24:50.413Z,21.48
2017-09-12T23:27:16.799Z,21.57
2017-09-12T23:29:43.897Z,21.61
2017-09-12T23:32:10.283Z,21.72
2017-09-12T23:34:36.759Z,21.67
2017-09-12T23:37:03.201Z,21.75
2017-09-12T23:39:29.739Z,21.71
2017-09-12T23:41:56.174Z,21.56
2017-09-12T23:44:22.609Z,21.44
2017-09-12T23:46:49.658Z,21.41
2017-09-12T23:49:16.049Z,21.48
2017-09-12T23:51:42.481Z,21.55
2017-09-12T23:54:08.963Z,21.53
2017-09-12T23:56:35.398Z,21.48
2017-09-12T23:59:01.854Z,21.59
